Time,TemperatureF,DewpointF,PressureIn,WindDirection,WindDirectionDegrees,WindSpeedMPH,WindSpeedGustMPH,Humidity,HourlyPrecipIn,Conditions,Clouds,dailyrainin,SoftwareType,DateUTC
2013-05-19 00:01:00,61.0,46.0,-100.00,NNE,30,-999.0,-999.0,58,-99.99,,,-99.99,,2013-05-19 07:01:00,
2013-05-19 00:11:00,61.0,46.0,-100.00,NNE,30,-999.0,-999.0,58,-99.99,,,-99.99,,2013-05-19 07:11:00,
2013-05-19 00:21:00,65.0,40.0,-100.00,North,0,-999.0,-999.0,40,-99.99,,,-99.99,,2013-05-19 07:21:00,
2013-05-19 00:32:00,65.0,40.0,-100.00,North,0,-999.0,-999.0,40,-99.99,,,-99.99,,2013-05-19 07:32:00,
2013-05-19 00:42:00,65.0,40.0,-100.00,North,0,-999.0,-999.0,40,-99.99,,,-99.99,,2013-05-19 07:42:00,
2013-05-19 00:52:00,62.0,44.0,-100.00,SSW,197,-999.0,-999.0,52,-99.99,,,-99.99,,2013-05-19 07:52:00,
2013-05-19 01:01:00,62.0,44.0,-100.00,SSW,197,-999.0,-999.0,52,-99.99,,,-99.99,,2013-05-19 08:01:00,
2013-05-19 01:12:00,62.0,44.0,-100.00,SSW,197,-999.0,-999.0,52,-99.99,,,-99.99,,2013-05-19 08:12:00,
2013-05-19 01:21:00,60.0,43.0,-100.00,SW,215,-999.0,-999.0,53,-99.99,,,-99.99,,2013-05-19 08:21:00,
2013-05-19 01:32:00,60.0,43.0,-100.00,SW,215,-999.0,-999.0,53,-99.99,,,-99.99,,2013-05-19 08:32:00,
2013-05-19 01:41:00,60.0,43.0,-100.00,SW,215,-999.0,-999.0,53,-99.99,,,-99.99,,2013-05-19 08:41:00,
2013-05-19 01:51:00,60.0,39.0,-100.00,North,0,-999.0,-999.0,46,-99.99,,,-99.99,,2013-05-19 08:51:00,
2013-05-19 02:02:00,60.0,39.0,-100.00,North,0,-999.0,-999.0,46,-99.99,,,-99.99,,2013-05-19 09:02:00,
2013-05-19 02:21:00,61.0,38.0,-100.00,North,0,-999.0,-999.0,43,-99.99,,,-99.99,,2013-05-19 09:21:00,
2013-05-19 02:32:00,61.0,38.0,-100.00,North,0,-999.0,-999.0,43,-99.99,,,-99.99,,2013-05-19 09:32:00,
2013-05-19 02:42:00,61.0,38.0,-100.00,North,0,-999.0,-999.0,43,-99.99,,,-99.99,,2013-05-19 09:42:00,
2013-05-19 02:53:00,58.0,37.0,-100.00,NNE,17,-999.0,-999.0,45,-99.99,,,-99.99,,2013-05-19 09:53:00,
2013-05-19 03:02:00,58.0,37.0,-100.00,NNE,17,-999.0,-999.0,45,-99.99,,,-99.99,,2013-05-19 10:02:00,
2013-05-19 03:22:00,57.0,40.0,-100.00,NNE,18,-999.0,-999.0,52,-99.99,,,-99.99,,2013-05-19 10:22:00,
2013-05-19 03:32:00,57.0,40.0,-100.00,NNE,18,-999.0,-999.0,52,-99.99,,,-99.99,,2013-05-19 10:32:00,
2013-05-19 03:42:00,57.0,40.0,-100.00,NNE,18,-999.0,-999.0,52,-99.99,,,-99.99,,2013-05-19 10:42:00,
2013-05-19 03:52:00,57.0,45.0,-100.00,NNE,23,3.0,-999.0,63,-99.99,,,0.00,,2013-05-19 10:52:00,
2013-05-19 04:02:00,57.0,45.0,-100.00,NNE,23,3.0,-999.0,63,-99.99,,,0.00,,2013-05-19 11:02:00,
2013-05-19 04:11:00,57.0,45.0,-100.00,NNE,23,3.0,-999.0,63,-99.99,,,0.00,,2013-05-19 11:11:00,
2013-05-19 04:21:00,56.0,44.0,-100.00,NNE,17,-999.0,-999.0,64,-99.99,,,-99.99,,2013-05-19 11:21:00,
2013-05-19 04:32:00,56.0,44.0,-100.00,NNE,17,-999.0,-999.0,64,-99.99,,,-99.99,,2013-05-19 11:32:00,
2013-05-19 04:42:00,56.0,44.0,-100.00,NNE,17,-999.0,-999.0,64,-99.99,,,-99.99,,2013-05-19 11:42:00,
2013-05-19 04:52:00,55.0,44.0,-100.00,North,11,-999.0,-999.0,67,-99.99,,,-99.99,,2013-05-19 11:52:00,
2013-05-19 05:01:00,55.0,44.0,-100.00,North,11,-999.0,-999.0,67,-99.99,,,-99.99,,2013-05-19 12:01:00,
2013-05-19 05:11:00,55.0,44.0,-100.00,North,11,-999.0,-999.0,67,-99.99,,,-99.99,,2013-05-19 12:11:00,
2013-05-19 05:21:00,55.0,46.0,-100.00,NNE,18,-999.0,-999.0,72,-99.99,,,-99.99,,2013-05-19 12:21:00,
2013-05-19 05:31:00,55.0,46.0,-100.00,NNE,18,-999.0,-999.0,72,-99.99,,,-99.99,,2013-05-19 12:31:00,
2013-05-19 05:41:00,55.0,46.0,-100.00,NNE,18,-999.0,-999.0,72,-99.99,,,-99.99,,2013-05-19 12:41:00,
2013-05-19 05:52:00,53.0,44.0,-100.00,NNE,18,-999.0,-999.0,72,-99.99,,,-99.99,,2013-05-19 12:52:00,
2013-05-19 06:01:00,53.0,44.0,-100.00,NNE,18,-999.0,-999.0,72,-99.99,,,-99.99,,2013-05-19 13:01:00,
2013-05-19 06:11:00,53.0,44.0,-100.00,NNE,18,-999.0,-999.0,72,-99.99,,,-99.99,,2013-05-19 13:11:00,
2013-05-19 06:21:00,52.0,44.0,-100.00,NNE,28,-999.0,-999.0,75,-99.99,,,-99.99,,2013-05-19 13:21:00,
2013-05-19 06:32:00,52.0,44.0,-100.00,NNE,28,-999.0,-999.0,75,-99.99,,,-99.99,,2013-05-19 13:32:00,
2013-05-19 06:42:00,52.0,44.0,-100.00,NNE,28,-999.0,-999.0,75,-99.99,,,-99.99,,2013-05-19 13:42:00,
2013-05-19 06:52:00,53.0,45.0,-100.00,NNE,29,-999.0,-999.0,74,-99.99,,,-99.99,,2013-05-19 13:52:00,
2013-05-19 07:02:00,53.0,45.0,-100.00,NNE,29,-999.0,-999.0,74,-99.99,,,-99.99,,2013-05-19 14:02:00,
2013-05-19 07:11:00,53.0,45.0,-100.00,NNE,29,-999.0,-999.0,74,-99.99,,,-99.99,,2013-05-19 14:11:00,
2013-05-19 07:21:00,54.0,47.0,-100.00,NNE,33,-999.0,-999.0,76,-99.99,,,-99.99,,2013-05-19 14:21:00,
2013-05-19 07:32:00,54.0,47.0,-100.00,NNE,33,-999.0,-999.0,76,-99.99,,,-99.99,,2013-05-19 14:32:00,
2013-05-19 07:41:00,54.0,47.0,-100.00,NNE,33,-999.0,-999.0,76,-99.99,,,-99.99,,2013-05-19 14:41:00,
2013-05-19 07:51:00,59.0,49.0,-100.00,NNE,28,-999.0,-999.0,70,-99.99,,,-99.99,,2013-05-19 14:51:00,
2013-05-19 08:01:00,59.0,49.0,-100.00,NNE,28,-999.0,-999.0,70,-99.99,,,-99.99,,2013-05-19 15:01:00,
2013-05-19 08:11:00,59.0,49.0,-100.00,NNE,28,-999.0,-999.0,70,-99.99,,,-99.99,,2013-05-19 15:11:00,
2013-05-19 08:21:00,65.0,50.0,-100.00,NNE,28,-999.0,-999.0,59,-99.99,,,-99.99,,2013-05-19 15:21:00,
2013-05-19 08:33:00,65.0,50.0,-100.00,NNE,28,-999.0,-999.0,59,-99.99,,,-99.99,,2013-05-19 15:33:00,